Hickory Valley, Louisiana
Current Conditions -  °F | °C
As of 4:35 PM on Tuesday 21 Oct 2014 (Local Time) from KRSN Reporting Station
Scattered Clouds Scattered Clouds  
Wind Chill: 79°   Ceiling: Unl
Heat Index: 80°   Visibility: 10mi
Dew Point: 60°   Wind: 8mph
Humidity: 53%   Direction: 360°N
Pressure: 30.06"   Gusts: NA
Location:  32.0547°N, 92.4144°W
Report Text: KRSN 212135Z AUTO 36007KT 10SM SCT040 26/16 A3006 RMK AO2 T02610157
Loading
Personal Weather Stations






























Interactive Weather Map New forecast layout! Learn more

10-Day Weather Forecast

Advertisements
Track Severe Weather on mobile